Time;durP1;ratioP1;P1;durP2;ratioP2;P2;SDS_P1;SDS_P2;PMS_P1;PMS_P2;Temp;Humidity;BMP_temperature;BMP_pressure;BME280_temperature;BME280_humidity;BME280_pressure;Samples;Min_cycle;Max_cycle;Signal;HPM_P1;HPM_P2
2023/08/23 00:05:06;;;;;;;6.40;3.90;;;16.20;39.60;;;;;;20829127;28;20037;-44
2023/08/23 00:15:07;;;;;;;5.97;3.83;;;16.10;41.40;;;;;;20827762;28;20040;-43
2023/08/23 00:25:08;;;;;;;5.55;3.65;;;16.10;49.20;;;;;;20830703;28;20044;-44
2023/08/23 00:35:09;;;;;;;6.13;3.90;;;16.00;47.90;;;;;;20828007;28;20136;-44
2023/08/23 00:45:09;;;;;;;6.50;4.50;;;15.90;55.60;;;;;;20824924;28;20831;-44
2023/08/23 00:55:10;;;;;;;7.60;4.38;;;16.00;60.90;;;;;;20827829;28;21060;-44
2023/08/23 01:05:11;;;;;;;5.55;3.90;;;15.90;63.00;;;;;;20818333;28;20041;-44
2023/08/23 01:15:14;;;;;;;6.65;4.07;;;15.90;65.40;;;;;;20828438;28;20092;-43
2023/08/23 01:25:15;;;;;;;8.35;4.50;;;15.90;74.70;;;;;;20835787;28;20480;-43
2023/08/23 01:35:21;;;;;;;5.55;4.03;;;15.90;77.60;;;;;;20828086;28;20562;-43
2023/08/23 01:45:22;;;;;;;8.07;4.93;;;15.80;81.00;;;;;;20829421;28;20044;-44
2023/08/23 01:55:23;;;;;;;7.25;4.88;;;15.80;86.50;;;;;;20830104;28;20049;-44
2023/08/23 02:05:24;;;;;;;8.15;5.47;;;15.70;82.60;;;;;;20828776;28;20033;-44
2023/08/23 02:15:24;;;;;;;7.90;5.68;;;15.70;88.20;;;;;;20826399;28;20425;-44
2023/08/23 02:25:25;;;;;;;12.18;7.82;;;15.70;81.30;;;;;;20826087;28;20033;-43
2023/08/23 02:35:25;;;;;;;20.23;13.80;;;15.60;90.60;;;;;;20824637;28;20040;-44
2023/08/23 02:45:26;;;;;;;18.85;13.07;;;15.80;99.90;;;;;;20824690;28;21702;-44
2023/08/23 02:55:26;;;;;;;19.20;13.70;;;16.20;99.10;;;;;;20831677;28;20079;-44
2023/08/23 03:05:27;;;;;;;18.30;13.27;;;16.30;99.90;;;;;;20825753;28;20037;-44
2023/08/23 03:15:27;;;;;;;14.05;10.48;;;16.50;90.30;;;;;;20817464;28;20083;-43
2023/08/23 03:25:28;;;;;;;16.30;9.25;;;16.40;85.50;;;;;;20830590;28;20135;-44
2023/08/23 03:35:28;;;;;;;13.48;8.77;;;16.40;93.70;;;;;;20819772;28;20523;-44
2023/08/23 03:45:30;;;;;;;14.98;9.32;;;16.40;93.50;;;;;;20821545;28;20029;-44
2023/08/23 03:55:30;;;;;;;13.93;8.90;;;16.50;91.20;;;;;;20821794;28;20052;-43
2023/08/23 04:05:31;;;;;;;16.40;9.32;;;16.60;69.20;;;;;;20822754;28;20507;-43
2023/08/23 04:15:31;;;;;;;16.30;9.77;;;16.60;61.80;;;;;;20830859;28;20049;-44
2023/08/23 04:25:32;;;;;;;17.63;9.73;;;16.60;75.20;;;;;;20823476;28;20037;-44
2023/08/23 04:35:33;;;;;;;14.90;9.25;;;16.60;88.30;;;;;;20818472;28;20066;-43
2023/08/23 04:45:37;;;;;;;16.95;11.15;;;16.70;79.90;;;;;;20830048;28;20084;-44
2023/08/23 04:55:38;;;;;;;18.83;11.35;;;16.80;72.90;;;;;;20837579;28;20075;-44
2023/08/23 05:05:38;;;;;;;15.15;10.10;;;16.80;62.50;;;;;;20832220;28;20033;-44
2023/08/23 05:15:39;;;;;;;15.70;9.70;;;16.90;49.30;;;;;;20832439;28;20518;-44
2023/08/23 05:25:40;;;;;;;13.10;9.00;;;16.80;75.50;;;;;;20831332;28;20033;-43
2023/08/23 05:35:42;;;;;;;14.60;7.95;;;16.90;64.40;;;;;;20828859;28;20049;-43
2023/08/23 05:45:43;;;;;;;19.30;10.13;;;16.90;77.40;;;;;;20835339;28;20135;-43
2023/08/23 05:55:48;;;;;;;9.68;6.80;;;17.10;84.20;;;;;;20832745;28;20603;-44
2023/08/23 06:05:54;;;;;;;10.18;6.82;;;17.50;62.50;;;;;;20837599;28;20045;-43
2023/08/23 06:15:54;;;;;;;16.98;10.55;;;17.60;48.60;;;;;;20844080;28;20094;-44
2023/08/23 06:26:02;;;;;;;31.60;12.05;;;17.80;57.60;;;;;;20845504;28;20037;-44
2023/08/23 06:36:08;;;;;;;18.35;12.02;;;18.20;46.60;;;;;;20843781;28;20098;-44
2023/08/23 06:46:09;;;;;;;20.95;11.77;;;18.30;45.50;;;;;;20838388;28;20037;-43
2023/08/23 06:56:11;;;;;;;21.85;12.27;;;18.60;37.60;;;;;;20852386;28;20131;-44
2023/08/23 07:06:13;;;;;;;21.52;12.75;;;18.80;35.90;;;;;;20836840;28;20480;-43
2023/08/23 07:16:13;;;;;;;17.52;12.57;;;19.10;25.10;;;;;;20818494;28;20412;-43
2023/08/23 07:26:14;;;;;;;17.70;13.50;;;19.20;27.40;;;;;;20842503;28;20037;-44
2023/08/23 07:36:15;;;;;;;21.75;15.02;;;19.30;24.10;;;;;;20833191;28;20519;-44
2023/08/23 07:46:16;;;;;;;25.13;16.88;;;19.40;24.30;;;;;;20835346;28;20349;-44
2023/08/23 07:56:17;;;;;;;26.17;18.23;;;19.70;19.40;;;;;;20838893;28;20155;-44
2023/08/23 08:06:18;;;;;;;25.45;15.90;;;20.00;14.70;;;;;;20837957;28;20044;-44
2023/08/23 08:16:18;;;;;;;22.55;14.85;;;20.20;3.00;;;;;;20842220;28;20118;-43
2023/08/23 08:26:19;;;;;;;21.00;16.98;;;20.50;1.00;;;;;;20864598;28;20122;-44
2023/08/23 08:36:19;;;;;;;19.92;14.57;;;20.90;1.00;;;;;;20861119;28;20041;-44
2023/08/23 08:46:20;;;;;;;21.33;15.38;;;21.10;1.00;;;;;;20851453;28;20040;-44
2023/08/23 08:56:21;;;;;;;20.98;16.85;;;21.60;1.00;;;;;;20856786;28;20044;-44
2023/08/23 09:06:22;;;;;;;19.65;14.27;;;22.00;1.00;;;;;;20858011;28;20044;-44
2023/08/23 09:16:26;;;;;;;19.52;13.60;;;22.00;1.00;;;;;;20851309;28;20497;-44
2023/08/23 09:26:27;;;;;;;17.95;13.82;;;22.40;1.00;;;;;;20849440;28;20363;-44
2023/08/23 09:36:29;;;;;;;15.90;10.85;;;22.70;1.00;;;;;;20849947;28;20053;-44
2023/08/23 09:46:37;;;;;;;15.13;11.68;;;23.70;1.00;;;;;;20842556;28;20467;-44
2023/08/23 09:56:38;;;;;;;11.63;8.07;;;24.30;1.00;;;;;;20846121;28;20556;-44
2023/08/23 10:06:40;;;;;;;14.32;7.15;;;24.70;1.00;;;;;;20845807;28;20037;-44
2023/08/23 10:16:42;;;;;;;13.35;6.68;;;24.00;1.00;;;;;;20845195;28;20041;-44
2023/08/23 10:26:51;;;;;;;9.88;6.47;;;24.50;1.00;;;;;;20845853;28;20048;-44
2023/08/23 10:36:53;;;;;;;9.63;5.78;;;24.40;1.00;;;;;;20837895;28;20037;-45
2023/08/23 10:46:54;;;;;;;10.68;6.03;;;24.70;1.00;;;;;;20842402;28;20507;-44
2023/08/23 10:56:55;;;;;;;7.70;3.95;;;25.20;1.00;;;;;;20845306;28;20124;-44
2023/08/23 11:06:56;;;;;;;5.55;2.20;;;25.60;1.00;;;;;;20844904;28;20086;-44
2023/08/23 11:16:56;;;;;;;4.13;1.40;;;25.90;1.00;;;;;;20859108;28;20044;-44
2023/08/23 11:26:57;;;;;;;4.77;1.80;;;26.10;1.00;;;;;;20865989;28;20029;-44
2023/08/23 11:36:57;;;;;;;4.17;1.70;;;26.60;1.00;;;;;;20855166;28;20055;-44
2023/08/23 11:46:59;;;;;;;6.32;2.08;;;26.60;1.00;;;;;;20832075;28;20033;-44
2023/08/23 11:57:00;;;;;;;4.70;2.17;;;26.40;1.00;;;;;;20836491;28;20033;-44
2023/08/23 12:07:01;;;;;;;8.32;5.07;;;26.10;1.00;;;;;;20835095;28;20068;-45
2023/08/23 12:17:01;;;;;;;22.65;6.88;;;26.40;1.00;;;;;;20835350;28;20182;-45
2023/08/23 12:27:02;;;;;;;8.75;5.40;;;26.70;1.00;;;;;;20815097;28;20174;-44
2023/08/23 12:37:03;;;;;;;6.03;4.37;;;25.90;1.00;;;;;;20804323;28;20056;-44
2023/08/23 12:47:03;;;;;;;46.28;8.55;;;26.40;1.00;;;;;;20804059;28;20500;-44
2023/08/23 12:57:04;;;;;;;6.37;3.67;;;26.90;1.00;;;;;;20811261;28;20075;-44
2023/08/23 13:07:04;;;;;;;3.70;1.67;;;27.00;1.00;;;;;;20821185;28;20045;-44
2023/08/23 13:17:05;;;;;;;3.90;1.30;;;27.00;1.00;;;;;;20846971;28;20037;-44
2023/08/23 13:27:06;;;;;;;3.17;1.85;;;27.40;1.00;;;;;;20860357;28;20043;-45
2023/08/23 13:37:07;;;;;;;4.75;1.20;;;27.60;1.00;;;;;;20860332;28;20052;-44
2023/08/23 13:47:08;;;;;;;2.63;1.05;;;27.30;1.00;;;;;;20842331;28;20040;-44
2023/08/23 13:57:08;;;;;;;5.88;1.52;;;26.70;1.00;;;;;;20860692;28;20111;-45
2023/08/23 14:07:09;;;;;;;2.47;1.03;;;26.40;1.00;;;;;;20845655;28;20388;-44
2023/08/23 14:17:09;;;;;;;2.75;1.08;;;26.70;1.00;;;;;;20842772;28;20041;-45
2023/08/23 14:27:10;;;;;;;1.92;0.80;;;27.00;1.00;;;;;;20842923;28;20037;-44
2023/08/23 14:37:11;;;;;;;1.92;0.88;;;26.70;1.00;;;;;;20844006;28;20033;-45
2023/08/23 14:47:11;;;;;;;4.07;1.75;;;26.50;1.00;;;;;;20837676;28;20059;-44
2023/08/23 14:57:14;;;;;;;2.28;1.00;;;26.40;1.00;;;;;;20840635;28;20052;-44
2023/08/23 15:07:16;;;;;;;3.88;1.10;;;25.90;1.00;;;;;;20800358;28;20073;-44
2023/08/23 15:17:16;;;;;;;2.60;0.90;;;25.70;1.00;;;;;;20835029;28;20537;-44
2023/08/23 15:27:17;;;;;;;4.03;1.98;;;25.80;1.00;;;;;;20835898;28;20120;-45
2023/08/23 15:37:20;;;;;;;3.40;1.47;;;25.60;1.00;;;;;;20831557;28;20516;-44
2023/08/23 15:47:21;;;;;;;2.78;1.10;;;25.40;1.00;;;;;;20825098;28;20044;-44
2023/08/23 15:57:22;;;;;;;3.95;1.20;;;25.20;1.00;;;;;;20836273;28;20095;-44
2023/08/23 16:07:23;;;;;;;3.53;1.38;;;24.80;1.00;;;;;;20834628;28;20037;-44
2023/08/23 16:17:24;;;;;;;3.38;1.20;;;24.60;1.00;;;;;;20851001;28;20051;-44
2023/08/23 16:27:25;;;;;;;3.58;0.95;;;24.40;1.00;;;;;;20839317;28;20037;-44
2023/08/23 16:37:26;;;;;;;1.98;0.80;;;24.30;1.00;;;;;;20818535;28;20044;-44
2023/08/23 16:47:27;;;;;;;2.72;1.10;;;23.70;1.00;;;;;;20833848;28;20124;-44
2023/08/23 16:57:28;;;;;;;4.45;1.25;;;23.50;1.00;;;;;;20859811;28;20040;-44
2023/08/23 17:07:29;;;;;;;3.75;0.80;;;23.30;1.00;;;;;;20869473;28;20477;-44
2023/08/23 17:17:29;;;;;;;2.15;0.98;;;22.90;1.00;;;;;;20850134;28;20049;-44
2023/08/23 17:27:31;;;;;;;2.65;0.88;;;22.70;1.00;;;;;;20824444;28;20044;-43
2023/08/23 17:37:32;;;;;;;3.95;0.70;;;22.70;1.00;;;;;;20822347;28;20048;-43
2023/08/23 17:47:32;;;;;;;2.65;0.80;;;22.50;1.00;;;;;;20827238;28;20041;-43
2023/08/23 17:57:33;;;;;;;2.67;0.80;;;22.20;1.00;;;;;;20846744;28;20045;-44
2023/08/23 18:07:34;;;;;;;2.80;0.80;;;22.00;1.00;;;;;;20832875;28;20500;-43
2023/08/23 18:17:34;;;;;;;1.88;0.77;;;21.80;1.00;;;;;;20841541;28;21025;-43
2023/08/23 18:27:37;;;;;;;3.00;0.90;;;21.60;1.00;;;;;;20834740;28;20041;-43
2023/08/23 18:37:38;;;;;;;1.65;0.60;;;21.50;1.00;;;;;;20833019;28;20052;-43
2023/08/23 18:47:38;;;;;;;2.25;1.10;;;21.20;1.00;;;;;;20839431;28;20029;-43
2023/08/23 18:57:39;;;;;;;3.07;0.80;;;20.90;1.00;;;;;;20850482;28;20041;-43
2023/08/23 19:07:40;;;;;;;2.78;1.00;;;20.80;1.00;;;;;;20855525;28;20503;-44
2023/08/23 19:17:40;;;;;;;3.63;1.10;;;20.60;1.00;;;;;;20851297;28;20055;-43
2023/08/23 19:27:41;;;;;;;3.22;1.02;;;20.40;1.00;;;;;;20829819;28;20042;-43
2023/08/23 19:37:41;;;;;;;3.17;1.17;;;20.20;1.00;;;;;;20836129;28;20052;-44
2023/08/23 19:47:42;;;;;;;4.28;1.13;;;20.00;1.00;;;;;;20841007;28;20083;-43
2023/08/23 19:57:43;;;;;;;3.50;1.10;;;19.90;1.00;;;;;;20843842;28;20044;-43
2023/08/23 20:07:43;;;;;;;3.65;1.10;;;19.80;1.00;;;;;;20833964;28;20040;-43
2023/08/23 20:17:44;;;;;;;3.63;1.17;;;19.70;1.00;;;;;;20862385;28;20129;-44
2023/08/23 20:27:44;;;;;;;3.42;1.15;;;19.70;1.00;;;;;;20851557;28;20041;-44
2023/08/23 20:37:47;;;;;;;3.85;1.30;;;19.50;1.00;;;;;;20843149;28;20049;-43
2023/08/23 20:47:48;;;;;;;2.60;1.13;;;19.40;1.00;;;;;;20837140;28;20738;-43
2023/08/23 20:57:48;;;;;;;2.50;1.30;;;19.20;1.00;;;;;;20834758;28;20510;-44
2023/08/23 21:07:49;;;;;;;3.93;1.77;;;19.20;1.00;;;;;;20841422;28;20516;-43
2023/08/23 21:17:49;;;;;;;5.32;1.80;;;19.10;1.00;;;;;;20840143;28;20055;-43
2023/08/23 21:27:50;;;;;;;3.95;1.80;;;19.00;1.00;;;;;;20837411;28;20045;-43
2023/08/23 21:37:51;;;;;;;4.15;1.95;;;18.90;1.00;;;;;;20847521;28;20302;-43
2023/08/23 21:47:51;;;;;;;3.20;1.70;;;18.70;1.00;;;;;;20829934;28;20040;-43
2023/08/23 21:57:52;;;;;;;4.50;1.80;;;18.60;1.00;;;;;;20836534;28;20278;-43
2023/08/23 22:07:52;;;;;;;5.35;2.03;;;18.60;1.00;;;;;;20826910;28;20516;-43
2023/08/23 22:17:53;;;;;;;2.63;1.55;;;18.50;1.00;;;;;;20825113;28;20572;-43
2023/08/23 22:27:53;;;;;;;4.65;1.92;;;18.30;1.00;;;;;;20826544;28;20029;-42
2023/08/23 22:37:54;;;;;;;5.32;2.00;;;18.30;1.00;;;;;;20820257;28;20056;-43
2023/08/23 22:47:57;;;;;;;3.85;2.08;;;18.20;1.00;;;;;;20813609;28;20595;-43
2023/08/23 22:57:57;;;;;;;4.38;2.17;;;18.20;1.00;;;;;;20811669;28;20045;-43
2023/08/23 23:07:58;;;;;;;5.30;2.60;;;18.10;1.00;;;;;;20828872;28;20113;-43
2023/08/23 23:17:58;;;;;;;5.13;2.53;;;18.00;1.00;;;;;;20835240;28;20638;-43
2023/08/23 23:27:59;;;;;;;7.88;3.38;;;17.90;1.00;;;;;;20841852;28;20078;-43
2023/08/23 23:37:59;;;;;;;7.38;3.47;;;17.90;1.00;;;;;;20841086;28;20191;-43
2023/08/23 23:48:01;;;;;;;5.80;3.23;;;17.80;1.00;;;;;;20844292;28;20041;-43
2023/08/23 23:58:02;;;;;;;6.78;3.90;;;17.90;1.00;;;;;;20853179;28;20048;-43
